Terminal Aerodrome Forecast
Issued by NWS

Home | Current Version | Previous Version | Text Only | Print | Product List | Glossary On
Versions: 1 2 3 4 5 6 7 8 9 10 11 12 13
000
FTUS43 KICT 191100
TAFSLN
TAF
KSLN 191120Z 1912/2012 24007KT P6SM BKN150
     FM191900 18011KT P6SM SCT150
     FM200100 17010KT P6SM SCT200=

USA.gov is the U.S. government's official web portal to all federal, state and local government web resources and services.